Time;durP1;ratioP1;P1;durP2;ratioP2;P2;SDS_P1;SDS_P2;PMS_P1;PMS_P2;Temp;Humidity;BMP_temperature;BMP_pressure;BME280_temperature;BME280_humidity;BME280_pressure;Samples;Min_cycle;Max_cycle;Signal;HPM_P1;HPM_P2
2023/01/15 00:02:15;;;;;;;33.38;13.90;;;5.60;99.90;;;;;;5074769;28;20048;-84
2023/01/15 00:04:48;;;;;;;15.98;6.68;;;5.50;99.90;;;;;;5058643;28;20577;-92
2023/01/15 00:07:14;;;;;;;17.95;4.63;;;5.40;99.90;;;;;;5064718;28;20092;-85
2023/01/15 00:09:42;;;;;;;20.50;7.40;;;5.20;99.90;;;;;;5104956;28;20044;-84
2023/01/15 00:12:12;;;;;;;15.50;2.90;;;5.40;99.90;;;;;;5091497;28;20105;-84
2023/01/15 00:14:50;;;;;;;9.20;2.42;;;5.40;99.90;;;;;;5091091;28;20401;-84
2023/01/15 00:20:27;;;;;;;;;;;;;;;;;;;;;
2023/01/15 00:23:05;;;;;;;17.80;3.17;;;5.40;99.90;;;;;;5095422;28;20478;-85
2023/01/15 00:28:25;;;;;;;22.65;5.30;;;5.40;99.90;;;;;;5075520;28;20496;-86
2023/01/15 00:33:47;;;;;;;16.40;2.65;;;5.40;99.90;;;;;;5095469;28;20423;-87
2023/01/15 00:36:15;;;;;;;13.82;3.05;;;5.50;99.90;;;;;;5074378;28;20496;-86
2023/01/15 00:38:44;;;;;;;12.60;2.72;;;5.40;99.90;;;;;;5077147;28;20054;-84
2023/01/15 00:41:12;;;;;;;13.18;2.33;;;5.50;99.90;;;;;;5076531;28;20040;-84
2023/01/15 00:43:54;;;;;;;9.00;1.38;;;5.40;99.90;;;;;;5097885;28;20052;-86
2023/01/15 00:46:27;;;;;;;16.67;2.13;;;5.40;99.90;;;;;;5084859;28;20122;-84
2023/01/15 00:49:04;;;;;;;7.30;1.50;;;5.50;99.90;;;;;;5090634;28;20047;-84
2023/01/15 00:51:35;;;;;;;17.23;4.00;;;5.50;99.90;;;;;;5086974;28;20500;-85
2023/01/15 00:54:16;;;;;;;14.32;2.58;;;5.50;99.90;;;;;;5075427;28;20408;-87
2023/01/15 00:57:00;;;;;;;13.02;3.50;;;5.50;99.90;;;;;;5084438;28;20050;-85
2023/01/15 00:59:26;;;;;;;14.20;1.85;;;5.60;99.90;;;;;;5079335;28;20059;-85
2023/01/15 01:01:54;;;;;;;20.75;5.05;;;5.60;99.90;;;;;;5073626;28;20043;-85
2023/01/15 01:04:20;;;;;;;14.68;3.00;;;5.60;99.90;;;;;;5071685;28;20047;-84
2023/01/15 01:06:46;;;;;;;18.63;1.60;;;5.60;99.90;;;;;;5085257;28;20052;-87
2023/01/15 01:09:15;;;;;;;14.30;2.60;;;5.40;99.90;;;;;;5082416;28;20477;-85
2023/01/15 01:11:50;;;;;;;10.68;2.17;;;5.60;99.90;;;;;;5085227;28;20489;-86
2023/01/15 01:14:22;;;;;;;13.27;2.13;;;5.70;99.90;;;;;;5085330;28;20508;-85
2023/01/15 01:17:13;;;;;;;17.77;1.88;;;5.60;99.90;;;;;;5095258;28;20427;-89
2023/01/15 01:19:39;;;;;;;14.15;2.00;;;5.70;99.90;;;;;;5103733;28;20047;-84
2023/01/15 01:22:07;;;;;;;15.52;1.90;;;5.70;99.90;;;;;;5100153;28;20135;-84
2023/01/15 01:24:53;;;;;;;15.98;2.22;;;5.70;99.90;;;;;;5083796;28;20104;-84
2023/01/15 01:27:19;;;;;;;14.73;1.83;;;5.70;99.90;;;;;;5054307;28;20070;-85
2023/01/15 01:29:47;;;;;;;10.02;1.50;;;5.60;99.90;;;;;;5089012;28;20493;-84
2023/01/15 01:32:15;;;;;;;9.07;1.60;;;5.80;99.90;;;;;;5081950;28;20048;-85
2023/01/15 01:34:41;;;;;;;15.85;2.45;;;5.90;99.90;;;;;;5082384;28;20067;-84
2023/01/15 01:37:06;;;;;;;13.57;1.70;;;5.70;99.90;;;;;;5094940;28;20047;-84
2023/01/15 01:39:32;;;;;;;15.90;2.20;;;5.50;99.90;;;;;;5107749;28;20040;-84
2023/01/15 01:42:15;;;;;;;16.30;2.33;;;5.70;99.90;;;;;;5088406;28;20052;-85
2023/01/15 01:44:44;;;;;;;12.70;1.65;;;5.70;99.90;;;;;;5097305;28;20044;-84
2023/01/15 01:47:24;;;;;;;11.32;1.77;;;5.70;99.90;;;;;;5110789;28;20046;-84
2023/01/15 01:50:10;;;;;;;9.18;1.30;;;5.70;99.90;;;;;;5112046;28;20433;-85
2023/01/15 01:52:57;;;;;;;11.20;1.83;;;5.70;99.90;;;;;;5090060;28;20277;-85
2023/01/15 01:55:30;;;;;;;19.65;2.20;;;5.70;99.90;;;;;;5083730;28;20044;-85
2023/01/15 01:57:59;;;;;;;11.00;2.08;;;5.70;99.90;;;;;;5088671;28;20108;-89
2023/01/15 02:00:31;;;;;;;13.13;2.33;;;5.60;99.90;;;;;;5094368;28;20086;-85
2023/01/15 02:03:01;;;;;;;13.45;1.75;;;5.70;99.90;;;;;;5077269;28;20143;-85
2023/01/15 02:05:36;;;;;;;12.57;2.00;;;5.60;99.90;;;;;;5106919;28;20040;-84
2023/01/15 02:08:12;;;;;;;;;;;;;;;;;;;;;
2023/01/15 02:10:40;;;;;;;12.55;1.75;;;5.60;99.90;;;;;;5096592;28;20051;-86
2023/01/15 02:13:40;;;;;;;10.35;1.23;;;5.70;99.90;;;;;;5089722;28;20040;-85
2023/01/15 02:16:15;;;;;;;10.82;2.20;;;5.70;99.90;;;;;;5098701;28;20101;-86
2023/01/15 02:19:08;;;;;;;6.28;1.38;;;6.00;99.90;;;;;;5098857;28;20043;-86
2023/01/15 02:21:57;;;;;;;14.07;2.42;;;5.70;99.90;;;;;;5083016;28;20040;-84
2023/01/15 02:24:38;;;;;;;14.90;1.90;;;5.80;99.90;;;;;;5093746;28;20181;-84
2023/01/15 02:27:19;;;;;;;14.48;2.00;;;5.70;99.90;;;;;;5077060;28;20044;-85
2023/01/15 02:30:00;;;;;;;15.57;1.70;;;6.00;99.90;;;;;;5084442;28;20047;-84
2023/01/15 02:32:39;;;;;;;19.60;1.90;;;5.80;99.90;;;;;;5103676;28;20127;-84
2023/01/15 02:35:14;;;;;;;9.27;1.88;;;5.80;99.90;;;;;;5091600;28;20094;-89
2023/01/15 02:37:48;;;;;;;10.85;2.15;;;5.80;99.90;;;;;;5088644;28;20101;-85
2023/01/15 02:40:16;;;;;;;17.25;2.20;;;5.70;99.90;;;;;;5084418;28;20131;-84
2023/01/15 02:42:45;;;;;;;17.17;2.17;;;5.90;99.90;;;;;;5106431;28;20072;-85
2023/01/15 02:45:14;;;;;;;8.68;2.47;;;5.70;99.90;;;;;;5096560;28;20507;-84
2023/01/15 02:47:48;;;;;;;9.80;1.60;;;5.60;99.90;;;;;;5093352;28;20515;-85
2023/01/15 02:50:19;;;;;;;14.25;1.80;;;5.60;99.90;;;;;;5103522;28;20109;-84
2023/01/15 02:52:53;;;;;;;9.65;1.38;;;5.70;99.90;;;;;;5096307;28;20523;-84
2023/01/15 02:55:44;;;;;;;8.80;1.42;;;5.80;99.90;;;;;;5095887;28;20126;-84
2023/01/15 02:58:23;;;;;;;13.60;1.77;;;5.80;76.70;;;;;;5075305;28;20562;-84
2023/01/15 03:00:52;;;;;;;16.60;2.35;;;5.80;99.90;;;;;;5093390;28;20520;-84
2023/01/15 03:03:43;;;;;;;12.18;1.45;;;6.00;99.90;;;;;;5093119;28;20040;-84
2023/01/15 03:06:30;;;;;;;19.45;2.10;;;5.90;99.90;;;;;;5076182;28;20583;-84
2023/01/15 03:08:56;;;;;;;4.60;1.48;;;5.80;90.00;;;;;;5091727;28;20044;-84
2023/01/15 03:11:22;;;;;;;14.75;1.90;;;5.80;99.90;;;;;;5074376;28;20052;-84
2023/01/15 03:14:17;;;;;;;12.13;1.58;;;5.80;99.90;;;;;;5064485;28;20040;-84
2023/01/15 03:16:50;;;;;;;14.85;2.00;;;5.80;1.00;;;;;;5080280;28;20048;-85
2023/01/15 03:19:26;;;;;;;13.32;2.10;;;5.80;73.00;;;;;;5075803;28;20058;-85
2023/01/15 03:21:57;;;;;;;10.05;1.50;;;5.80;99.90;;;;;;5086380;28;20481;-85
2023/01/15 03:24:41;;;;;;;17.35;2.20;;;5.80;99.90;;;;;;5081835;28;20055;-85
2023/01/15 03:27:07;;;;;;;12.27;1.88;;;5.80;99.90;;;;;;5075785;28;20130;-85
2023/01/15 03:29:51;;;;;;;;;;;;;;;;;;;;;
2023/01/15 03:32:24;;;;;;;14.40;1.75;;;5.70;99.90;;;;;;5094837;28;20036;-84
2023/01/15 03:34:54;;;;;;;14.63;2.25;;;5.70;99.90;;;;;;5087985;28;20093;-84
2023/01/15 03:37:26;;;;;;;16.67;2.83;;;5.70;99.90;;;;;;5066197;28;20082;-84
2023/01/15 03:39:52;;;;;;;14.30;2.58;;;5.80;99.90;;;;;;5074362;28;20075;-85
2023/01/15 03:42:20;;;;;;;10.63;2.38;;;5.70;99.90;;;;;;5104586;28;20047;-84
2023/01/15 03:45:01;;;;;;;11.50;1.90;;;5.70;99.90;;;;;;5092156;28;20438;-84
2023/01/15 03:48:00;;;;;;;17.60;2.00;;;5.60;99.90;;;;;;5093637;28;20507;-84
2023/01/15 03:50:32;;;;;;;13.77;1.88;;;5.60;99.90;;;;;;5104506;28;20054;-84
2023/01/15 03:53:24;;;;;;;10.77;2.15;;;5.50;99.90;;;;;;5095003;28;20051;-84
2023/01/15 03:56:07;;;;;;;15.40;2.17;;;5.50;99.90;;;;;;5085534;28;20103;-84
2023/01/15 03:58:53;;;;;;;19.50;2.28;;;5.50;99.90;;;;;;5089659;28;20075;-83
2023/01/15 04:01:23;;;;;;;14.63;2.08;;;5.50;98.80;;;;;;5086503;28;20062;-83
2023/01/15 04:03:50;;;;;;;17.00;2.50;;;5.50;99.90;;;;;;5099982;28;20489;-84
2023/01/15 04:06:17;;;;;;;15.70;2.05;;;5.40;99.90;;;;;;5080901;28;20066;-87
2023/01/15 04:08:47;;;;;;;12.52;2.22;;;5.50;99.90;;;;;;5091910;28;20097;-84
2023/01/15 04:11:22;;;;;;;14.38;2.47;;;5.50;99.90;;;;;;5068136;28;20048;-84
2023/01/15 04:13:47;;;;;;;9.25;1.77;;;5.50;99.90;;;;;;5082383;28;20043;-83
2023/01/15 04:16:13;;;;;;;10.30;1.88;;;5.50;99.90;;;;;;5073337;28;20047;-84
2023/01/15 04:18:39;;;;;;;18.30;2.35;;;5.50;99.90;;;;;;5066906;28;20052;-84
2023/01/15 04:21:05;;;;;;;17.23;2.22;;;5.50;99.90;;;;;;5073140;28;20043;-84
2023/01/15 04:23:30;;;;;;;10.57;1.70;;;5.50;99.90;;;;;;5075804;28;20178;-84
2023/01/15 04:25:59;;;;;;;15.20;2.42;;;5.50;99.90;;;;;;5074771;28;20043;-84
2023/01/15 04:28:25;;;;;;;15.05;2.63;;;5.50;96.00;;;;;;5085968;28;20079;-84
2023/01/15 04:30:51;;;;;;;12.63;2.05;;;5.50;99.70;;;;;;5092741;28;20562;-84
2023/01/15 04:33:16;;;;;;;17.20;2.53;;;5.50;99.90;;;;;;5069446;28;20122;-83
2023/01/15 04:35:45;;;;;;;14.52;2.20;;;5.50;99.90;;;;;;5109050;28;20044;-84
2023/01/15 04:38:14;;;;;;;12.75;1.73;;;5.50;99.90;;;;;;5075763;28;20051;-83
2023/01/15 04:46:11;;;;;;;18.70;3.17;;;5.50;99.90;;;;;;5111147;28;20136;-83
2023/01/15 04:48:38;;;;;;;11.88;1.85;;;5.40;99.90;;;;;;5082891;28;20105;-83
2023/01/15 04:51:05;;;;;;;17.02;2.20;;;5.40;99.90;;;;;;5084018;28;20079;-83
2023/01/15 04:53:31;;;;;;;16.92;3.20;;;5.40;99.90;;;;;;5077337;28;20040;-84
2023/01/15 04:56:04;;;;;;;15.55;1.95;;;5.30;99.90;;;;;;5093659;28;20137;-83
2023/01/15 04:58:30;;;;;;;12.07;2.47;;;5.30;99.90;;;;;;5085250;28;20044;-83
2023/01/15 05:01:01;;;;;;;15.38;2.45;;;5.20;99.90;;;;;;5084718;28;20407;-87
2023/01/15 05:03:30;;;;;;;10.27;1.50;;;5.20;99.90;;;;;;5072369;28;20393;-83
2023/01/15 05:06:03;;;;;;;12.55;1.77;;;5.40;99.90;;;;;;5049143;28;20051;-89
2023/01/15 05:08:32;;;;;;;16.42;1.73;;;5.30;99.90;;;;;;5073061;28;20059;-84
2023/01/15 05:11:10;;;;;;;8.60;1.63;;;5.20;99.90;;;;;;5086652;28;20044;-84
2023/01/15 05:13:38;;;;;;;10.90;1.65;;;5.20;99.90;;;;;;5076643;28;20055;-83
2023/01/15 05:16:17;;;;;;;15.65;2.13;;;5.20;99.90;;;;;;5100366;28;20051;-83
2023/01/15 05:18:44;;;;;;;10.32;1.75;;;5.20;99.90;;;;;;5063929;28;20054;-84
2023/01/15 05:21:24;;;;;;;15.07;2.47;;;5.00;99.90;;;;;;5068498;28;20115;-84
2023/01/15 05:23:56;;;;;;;11.80;2.13;;;5.10;99.90;;;;;;5069718;28;20072;-84
2023/01/15 05:26:24;;;;;;;11.52;1.38;;;5.10;99.90;;;;;;5071261;28;20052;-85
2023/01/15 05:28:55;;;;;;;10.50;2.42;;;5.20;99.90;;;;;;5062206;28;20086;-84
2023/01/15 05:31:22;;;;;;;14.52;2.80;;;5.30;99.90;;;;;;5053354;28;20048;-84
2023/01/15 05:33:48;;;;;;;12.70;2.20;;;5.10;99.90;;;;;;5083515;28;20089;-84
2023/01/15 05:36:18;;;;;;;11.30;1.65;;;5.10;99.90;;;;;;5073728;28;20044;-85
2023/01/15 05:38:46;;;;;;;13.07;1.60;;;5.10;99.90;;;;;;5069446;28;20108;-88
2023/01/15 05:44:03;;;;;;;15.75;2.15;;;5.10;99.90;;;;;;5072301;28;20058;-84
2023/01/15 05:46:28;;;;;;;12.20;1.75;;;4.90;99.90;;;;;;5058333;28;20414;-89
2023/01/15 05:49:00;;;;;;;8.25;1.75;;;5.10;99.90;;;;;;5035071;28;20102;-84
2023/01/15 05:51:29;;;;;;;7.95;1.70;;;5.00;99.90;;;;;;5066252;28;20044;-90
2023/01/15 05:53:57;;;;;;;12.50;1.60;;;4.90;99.90;;;;;;5045514;28;20032;-85
2023/01/15 05:56:26;;;;;;;8.25;1.40;;;4.80;99.90;;;;;;5055016;28;20059;-84
2023/01/15 05:58:57;;;;;;;14.13;2.05;;;4.90;99.90;;;;;;5062680;28;20539;-83
2023/01/15 06:01:23;;;;;;;22.15;2.13;;;4.80;99.90;;;;;;5064117;28;20428;-83
2023/01/15 06:03:49;;;;;;;12.10;1.60;;;4.90;99.90;;;;;;5047799;28;20048;-84
2023/01/15 06:06:16;;;;;;;17.00;2.55;;;4.90;99.90;;;;;;5076781;28;20051;-84
2023/01/15 06:08:43;;;;;;;10.57;1.45;;;4.70;99.90;;;;;;5092148;28;20048;-84
2023/01/15 06:11:10;;;;;;;15.02;2.17;;;4.70;99.90;;;;;;5078926;28;20043;-83
2023/01/15 06:13:39;;;;;;;11.30;1.70;;;4.60;99.90;;;;;;5059409;28;20055;-84
2023/01/15 06:16:10;;;;;;;13.80;1.70;;;4.80;99.90;;;;;;5081042;28;20059;-84
2023/01/15 06:18:40;;;;;;;9.85;1.80;;;4.70;99.90;;;;;;5091552;28;20051;-84
2023/01/15 06:21:15;;;;;;;16.30;1.80;;;4.80;99.90;;;;;;5095275;28;20036;-85
2023/01/15 06:23:44;;;;;;;17.02;1.75;;;4.70;99.90;;;;;;5092150;28;20047;-84
2023/01/15 06:26:19;;;;;;;11.23;2.17;;;4.80;99.90;;;;;;5085140;28;20075;-84
2023/01/15 06:28:51;;;;;;;15.35;1.88;;;4.70;99.90;;;;;;5074216;28;20554;-84
2023/01/15 06:31:26;;;;;;;12.82;1.83;;;4.70;99.90;;;;;;5071048;28;20051;-84
2023/01/15 06:34:02;;;;;;;14.75;1.95;;;4.60;99.90;;;;;;5069903;28;20115;-84
2023/01/15 06:36:30;;;;;;;8.02;1.60;;;4.70;99.90;;;;;;5054893;28;20100;-84
2023/01/15 06:38:57;;;;;;;9.77;1.70;;;4.60;99.90;;;;;;5081191;28;20047;-84
2023/01/15 06:47:21;;;;;;;18.13;2.80;;;4.90;99.90;;;;;;5081694;28;20058;-84
2023/01/15 06:49:48;;;;;;;9.38;1.45;;;4.70;99.90;;;;;;5075975;28;20522;-85
2023/01/15 06:52:17;;;;;;;12.68;1.67;;;4.80;99.90;;;;;;5085410;28;20039;-84
2023/01/15 06:54:48;;;;;;;14.15;1.80;;;4.80;99.90;;;;;;5076035;28;20048;-85
2023/01/15 06:57:17;;;;;;;6.75;1.20;;;4.90;99.90;;;;;;5080021;28;20514;-84
2023/01/15 06:59:46;;;;;;;13.50;1.70;;;4.60;99.90;;;;;;5072855;28;20191;-84
2023/01/15 07:02:16;;;;;;;11.00;1.50;;;4.50;99.90;;;;;;5094317;28;20044;-84
2023/01/15 07:05:03;;;;;;;12.07;1.60;;;4.80;99.90;;;;;;5078192;28;20046;-84
2023/01/15 07:07:29;;;;;;;8.38;1.70;;;4.50;99.90;;;;;;5061730;28;20040;-84
2023/01/15 07:10:00;;;;;;;12.27;1.63;;;4.70;99.90;;;;;;5062828;28;20048;-84
2023/01/15 07:12:26;;;;;;;11.50;1.40;;;4.50;99.90;;;;;;5077673;28;20036;-84
2023/01/15 07:14:57;;;;;;;9.95;1.42;;;4.60;99.90;;;;;;5080249;28;20185;-84
2023/01/15 07:17:25;;;;;;;13.00;1.48;;;4.50;99.90;;;;;;5096741;28;20387;-84
2023/01/15 07:19:51;;;;;;;12.45;2.30;;;4.40;99.90;;;;;;5072264;28;20047;-84
2023/01/15 07:22:39;;;;;;;8.93;1.20;;;4.50;99.90;;;;;;5072199;28;20052;-86
2023/01/15 07:25:18;;;;;;;;;;;;;;;;;;;;;
2023/01/15 07:27:48;;;;;;;12.88;1.90;;;4.40;99.90;;;;;;5081156;28;20040;-90
2023/01/15 07:30:14;;;;;;;9.38;1.42;;;4.40;99.90;;;;;;5096254;28;20540;-84
2023/01/15 07:32:45;;;;;;;5.50;1.13;;;4.40;99.90;;;;;;5078244;28;20176;-85
2023/01/15 07:35:11;;;;;;;13.57;1.85;;;4.50;99.90;;;;;;5076588;28;20035;-86
2023/01/15 07:37:38;;;;;;;11.85;1.63;;;4.50;99.90;;;;;;5076987;28;20094;-86
2023/01/15 07:40:04;;;;;;;10.65;1.83;;;4.40;99.90;;;;;;5070386;28;20125;-83
2023/01/15 07:50:42;;;;;;;5.55;1.27;;;4.50;99.90;;;;;;5109891;28;20507;-86
2023/01/15 07:53:08;;;;;;;8.68;1.35;;;4.40;99.90;;;;;;5057568;28;20147;-86
2023/01/15 07:55:35;;;;;;;11.02;1.48;;;4.40;99.90;;;;;;5076516;28;20240;-87
2023/01/15 07:58:02;;;;;;;9.63;1.05;;;4.40;99.90;;;;;;5072287;28;20127;-86
2023/01/15 08:00:28;;;;;;;8.02;1.20;;;4.50;99.90;;;;;;5071926;28;20043;-89
2023/01/15 08:02:54;;;;;;;10.77;1.95;;;4.50;99.90;;;;;;5057052;28;20516;-86
2023/01/15 08:05:27;;;;;;;7.18;1.40;;;4.50;99.90;;;;;;5059399;28;20040;-87
2023/01/15 08:07:56;;;;;;;8.90;1.13;;;4.50;99.90;;;;;;5072640;28;20044;-87
2023/01/15 08:10:24;;;;;;;10.07;1.23;;;4.60;99.90;;;;;;5050680;28;20043;-83
2023/01/15 08:15:38;;;;;;;9.38;1.25;;;4.70;99.90;;;;;;5079450;28;20036;-86
2023/01/15 08:18:04;;;;;;;10.30;1.30;;;4.60;99.90;;;;;;5086297;28;20031;-87
2023/01/15 08:20:33;;;;;;;9.98;1.35;;;4.60;99.90;;;;;;5054962;28;20037;-87
2023/01/15 08:23:00;;;;;;;11.25;1.48;;;4.60;99.90;;;;;;5066560;28;20051;-87
2023/01/15 08:25:28;;;;;;;10.27;1.40;;;4.70;99.90;;;;;;5066931;28;20051;-86
2023/01/15 08:27:54;;;;;;;7.88;1.20;;;4.70;99.90;;;;;;5061308;28;20047;-89
2023/01/15 08:30:22;;;;;;;7.20;1.40;;;4.70;99.90;;;;;;5087380;28;20071;-86
2023/01/15 08:32:53;;;;;;;10.65;1.60;;;4.60;99.90;;;;;;5087000;28;20107;-87
2023/01/15 08:35:19;;;;;;;8.75;1.10;;;4.60;99.90;;;;;;5063141;28;20048;-91
2023/01/15 08:37:50;;;;;;;7.45;1.63;;;4.70;99.90;;;;;;5079732;28;20059;-87
2023/01/15 08:40:16;;;;;;;9.85;1.55;;;4.90;99.90;;;;;;5088691;28;20085;-87
2023/01/15 08:42:45;;;;;;;5.78;1.60;;;5.00;99.90;;;;;;5072624;28;20048;-87
2023/01/15 08:45:17;;;;;;;6.53;1.17;;;5.10;99.90;;;;;;5040969;28;20172;-88
2023/01/15 08:47:45;;;;;;;9.32;1.40;;;5.20;99.90;;;;;;5071822;28;20048;-87
2023/01/15 08:50:11;;;;;;;40.35;2.10;;;5.40;99.90;;;;;;5068893;28;20575;-87
2023/01/15 08:52:37;;;;;;;14.63;1.42;;;5.40;99.90;;;;;;5092197;28;20618;-86
2023/01/15 08:55:04;;;;;;;10.05;1.13;;;5.40;99.90;;;;;;5071636;28;20044;-87
2023/01/15 08:57:39;;;;;;;10.50;1.85;;;5.20;99.90;;;;;;5054930;28;20043;-86
2023/01/15 09:00:10;;;;;;;7.45;1.40;;;5.40;99.90;;;;;;5078502;28;20040;-86
2023/01/15 09:02:36;;;;;;;9.45;1.77;;;5.10;99.90;;;;;;5093665;28;20181;-86
2023/01/15 09:05:15;;;;;;;10.40;2.20;;;5.20;99.90;;;;;;5070132;28;20123;-86
2023/01/15 09:07:41;;;;;;;11.52;1.67;;;4.90;99.90;;;;;;5071536;28;20180;-90
2023/01/15 09:10:08;;;;;;;12.45;1.70;;;4.50;99.90;;;;;;5081396;28;20123;-83
2023/01/15 09:12:36;;;;;;;8.95;1.60;;;4.20;99.90;;;;;;5075756;28;20058;-84
2023/01/15 09:15:03;;;;;;;14.77;2.10;;;4.10;99.90;;;;;;5064298;28;20043;-85
2023/01/15 09:17:30;;;;;;;12.05;1.65;;;3.90;99.90;;;;;;5070679;28;20096;-86
2023/01/15 09:19:56;;;;;;;11.88;2.65;;;3.90;99.90;;;;;;5081406;28;20040;-85
2023/01/15 09:22:24;;;;;;;11.02;1.30;;;3.90;99.90;;;;;;5079138;28;20113;-90
2023/01/15 09:24:50;;;;;;;11.00;1.80;;;4.00;99.90;;;;;;5076782;28;20043;-85
2023/01/15 09:27:20;;;;;;;8.30;2.00;;;4.10;99.90;;;;;;5073368;28;20058;-85
2023/01/15 09:29:46;;;;;;;12.88;1.67;;;4.00;99.90;;;;;;5092336;28;20058;-85
2023/01/15 09:32:11;;;;;;;15.75;2.03;;;4.10;99.90;;;;;;5073989;28;20052;-85
2023/01/15 09:34:37;;;;;;;8.80;1.50;;;4.10;99.90;;;;;;5076798;28;20074;-85
2023/01/15 09:37:03;;;;;;;6.15;1.38;;;4.10;99.90;;;;;;5074501;28;20054;-89
2023/01/15 09:39:29;;;;;;;7.45;1.15;;;4.00;99.90;;;;;;5064938;28;20116;-86
2023/01/15 09:42:14;;;;;;;4.18;0.90;;;3.90;99.90;;;;;;5074193;28;20051;-86
2023/01/15 09:44:58;;;;;;;8.33;1.17;;;3.80;99.90;;;;;;5079005;28;20131;-85
2023/01/15 09:47:43;;;;;;;7.97;0.50;;;3.70;99.90;;;;;;5080031;28;20043;-86
2023/01/15 09:50:41;;;;;;;6.00;0.93;;;3.70;99.90;;;;;;5083457;28;20087;-89
2023/01/15 09:53:46;;;;;;;6.75;0.98;;;3.70;99.90;;;;;;5094759;28;20135;-93
2023/01/15 09:56:26;;;;;;;11.85;1.50;;;3.80;99.90;;;;;;5046134;28;20075;-86
2023/01/15 09:58:53;;;;;;;9.80;1.40;;;3.90;99.90;;;;;;5081250;28;20047;-82
2023/01/15 10:01:25;;;;;;;9.38;1.73;;;3.90;99.90;;;;;;5061081;28;20050;-86
2023/01/15 10:04:33;;;;;;;10.35;1.33;;;4.00;99.90;;;;;;5093702;28;20112;-80
2023/01/15 10:07:10;;;;;;;5.82;1.10;;;4.20;99.90;;;;;;5080361;28;20059;-84
2023/01/15 10:09:39;;;;;;;11.80;1.30;;;4.30;99.90;;;;;;5080787;28;20079;-84
2023/01/15 10:12:34;;;;;;;8.60;2.00;;;4.50;99.90;;;;;;5076627;28;20134;-86
2023/01/15 10:15:22;;;;;;;14.80;1.95;;;4.50;99.90;;;;;;5077896;28;20066;-85
2023/01/15 10:17:54;;;;;;;9.88;1.48;;;4.50;99.90;;;;;;5077815;28;20048;-85
2023/01/15 10:20:58;;;;;;;8.60;1.25;;;4.40;99.90;;;;;;5079872;28;20073;-86
2023/01/15 10:23:41;;;;;;;7.53;2.00;;;4.20;99.90;;;;;;5093856;28;20731;-87
2023/01/15 10:26:30;;;;;;;12.25;2.10;;;4.10;99.90;;;;;;5065917;28;20134;-87
2023/01/15 10:29:33;;;;;;;13.32;2.30;;;4.00;99.90;;;;;;5060356;28;20087;-85
2023/01/15 10:32:13;;;;;;;15.40;2.20;;;4.00;99.90;;;;;;5076929;28;20050;-87
2023/01/15 10:35:05;;;;;;;16.00;1.90;;;4.00;99.90;;;;;;5068895;28;20035;-86
2023/01/15 10:37:48;;;;;;;12.73;2.22;;;4.10;99.90;;;;;;5092463;28;20040;-86
2023/01/15 10:40:22;;;;;;;14.60;1.40;;;4.10;99.90;;;;;;5082373;28;20032;-85
2023/01/15 10:43:26;;;;;;;11.98;1.50;;;4.20;99.90;;;;;;5083590;28;20053;-87
2023/01/15 10:46:00;;;;;;;10.50;1.70;;;4.30;99.90;;;;;;5036711;28;20056;-86
2023/01/15 10:48:43;;;;;;;8.90;1.88;;;4.40;99.90;;;;;;5082667;28;20036;-86
2023/01/15 10:51:35;;;;;;;10.10;1.85;;;4.30;99.90;;;;;;5084956;28;20055;-89
2023/01/15 10:54:05;;;;;;;7.75;1.50;;;4.30;99.90;;;;;;5035963;28;20166;-88
2023/01/15 10:57:04;;;;;;;11.55;1.70;;;4.20;99.90;;;;;;5065195;28;20052;-80
2023/01/15 10:59:41;;;;;;;11.10;2.28;;;4.00;99.90;;;;;;5075859;28;20047;-91
2023/01/15 11:02:20;;;;;;;12.65;2.25;;;3.90;99.90;;;;;;5071140;28;20127;-87
2023/01/15 11:04:46;;;;;;;15.20;3.17;;;3.70;99.90;;;;;;5060910;28;20079;-87
2023/01/15 11:07:12;;;;;;;17.20;2.70;;;3.50;99.90;;;;;;5069952;28;20074;-87
2023/01/15 11:09:43;;;;;;;16.58;2.05;;;3.80;99.90;;;;;;5075658;28;20051;-90
2023/01/15 11:20:45;;;;;;;18.27;2.05;;;4.30;99.90;;;;;;5068362;28;20047;-87
2023/01/15 11:23:16;;;;;;;16.52;2.25;;;4.40;99.90;;;;;;5059095;28;20043;-86
2023/01/15 11:25:58;;;;;;;21.83;2.50;;;4.50;99.90;;;;;;5065961;28;20044;-90
2023/01/15 11:28:39;;;;;;;14.77;2.38;;;4.60;99.90;;;;;;5078888;28;20388;-88
2023/01/15 11:31:06;;;;;;;22.00;3.30;;;4.60;99.90;;;;;;5078168;28;20456;-88
2023/01/15 11:33:32;;;;;;;16.10;1.90;;;4.70;99.90;;;;;;5066929;28;20059;-89
2023/01/15 11:36:06;;;;;;;10.57;1.98;;;5.00;99.90;;;;;;5082882;28;20051;-88
2023/01/15 11:38:46;;;;;;;10.63;2.08;;;5.00;99.90;;;;;;5075279;28;20385;-88
2023/01/15 11:41:21;;;;;;;14.98;1.92;;;5.00;99.90;;;;;;5066195;28;20101;-87
2023/01/15 11:50:59;;;;;;;10.50;2.22;;;5.40;99.90;;;;;;5078966;28;20043;-86
2023/01/15 11:54:13;;;;;;;14.57;1.75;;;5.70;99.90;;;;;;5020806;28;20182;-87
2023/01/15 11:57:00;;;;;;;19.60;2.42;;;5.60;99.90;;;;;;5046991;28;20045;-86
2023/01/15 11:59:52;;;;;;;15.25;2.60;;;5.60;99.90;;;;;;4976283;28;20048;-89
2023/01/15 12:06:04;;;;;;;;;;;;;;;;;;;;;
2023/01/15 12:08:43;;;;;;;;;;;;;;;;;;;;;
2023/01/15 12:11:46;;;;;;;12.18;2.35;;;5.90;99.90;;;;;;5042853;28;20049;-84
2023/01/15 12:14:45;;;;;;;14.85;1.70;;;5.90;99.90;;;;;;5020281;28;20061;-83
2023/01/15 12:17:23;;;;;;;12.57;2.13;;;5.90;99.90;;;;;;5029410;28;20053;-87
2023/01/15 12:20:23;;;;;;;15.93;1.90;;;5.90;99.90;;;;;;5030021;28;20071;-87
2023/01/15 12:23:16;;;;;;;11.18;1.83;;;5.90;99.90;;;;;;5011624;28;20053;-86
2023/01/15 12:26:03;;;;;;;13.15;1.88;;;5.90;99.90;;;;;;5086537;28;20059;-87
2023/01/15 12:28:33;;;;;;;;;;;5.90;99.90;;;;;;5068492;28;20155;-86
2023/01/15 12:31:21;;;;;;;11.30;2.08;;;5.90;99.90;;;;;;5080308;28;19920;-86
2023/01/15 12:34:13;;;;;;;15.13;2.20;;;5.90;99.90;;;;;;5074415;28;20040;-86
2023/01/15 12:36:50;;;;;;;15.07;2.40;;;5.90;99.90;;;;;;5093472;28;20054;-86
2023/01/15 12:39:50;;;;;;;10.68;1.38;;;6.00;99.90;;;;;;5069153;28;20047;-86
2023/01/15 12:46:04;;;;;;;;;;;;;;;;;;;;;
2023/01/15 12:48:47;;;;;;;21.77;2.42;;;6.30;99.90;;;;;;5065204;28;20054;-86
2023/01/15 12:51:35;;;;;;;;;;;;;;;;;;;;;
2023/01/15 12:54:25;;;;;;;12.00;1.88;;;6.20;99.90;;;;;;5082661;28;20054;-85
2023/01/15 12:57:34;;;;;;;10.70;2.10;;;6.20;99.90;;;;;;5059472;28;20522;-85
2023/01/15 13:00:26;;;;;;;;;;;;;;;;;;;;;
2023/01/15 13:03:29;;;;;;;16.30;2.35;;;6.30;99.90;;;;;;5074763;28;20101;-86
2023/01/15 13:06:16;;;;;;;;;;;;;;;;;;;;;
2023/01/15 13:09:26;;;;;;;14.65;2.22;;;6.50;99.90;;;;;;5073159;28;20562;-86
2023/01/15 13:11:51;;;;;;;13.60;2.42;;;6.60;99.90;;;;;;5013187;28;20048;-85
2023/01/15 13:14:20;;;;;;;12.73;1.65;;;6.70;99.90;;;;;;5036344;28;20035;-86
2023/01/15 13:16:57;;;;;;;10.20;1.98;;;6.80;99.90;;;;;;5072482;28;20506;-85
2023/01/15 13:19:31;;;;;;;11.18;1.98;;;6.90;99.90;;;;;;5067101;28;20096;-86
2023/01/15 13:22:04;;;;;;;22.58;2.28;;;6.90;99.90;;;;;;5087112;28;20089;-85
2023/01/15 13:25:04;;;;;;;8.00;1.60;;;6.90;99.90;;;;;;5070901;28;20100;-85
2023/01/15 13:28:04;;;;;;;9.70;1.92;;;6.80;99.90;;;;;;5025924;28;20134;-87
2023/01/15 13:30:42;;;;;;;18.15;2.63;;;6.40;99.90;;;;;;5077460;28;20135;-84
2023/01/15 13:33:25;;;;;;;16.77;2.55;;;6.10;99.90;;;;;;5074391;28;20051;-86
2023/01/15 13:36:05;;;;;;;;;;;6.00;99.90;;;;;;5092400;28;20090;-86
2023/01/15 13:38:57;;;;;;;;;;;5.80;99.90;;;;;;5068355;28;19931;-88
2023/01/15 13:49:22;;;;;;;12.10;2.42;;;5.10;99.90;;;;;;5023003;28;20049;-87
2023/01/15 13:51:52;;;;;;;4.65;1.67;;;4.70;99.90;;;;;;5041461;28;20052;-87
2023/01/15 13:54:53;;;;;;;7.88;1.20;;;4.60;99.90;;;;;;5049091;28;20040;-88
2023/01/15 13:57:42;;;;;;;11.02;1.92;;;4.60;99.90;;;;;;5088421;28;20043;-87
2023/01/15 14:00:45;;;;;;;;;;;;;;;;;;;;;
2023/01/15 14:03:38;;;;;;;8.88;1.27;;;4.60;99.90;;;;;;5088823;28;20040;-86
2023/01/15 14:06:44;;;;;;;;;;;;;;;;;;;;;
2023/01/15 14:09:54;;;;;;;;;;;;;;;;;;;;;
2023/01/15 14:13:28;;;;;;;;;;;;;;;;;;;;;
2023/01/15 14:20:16;;;;;;;;;;;;;;;;;;;;;
2023/01/15 14:23:25;;;;;;;3.88;0.85;;;4.50;99.90;;;;;;5077089;28;20059;-86
2023/01/15 14:26:09;;;;;;;3.38;0.80;;;4.60;99.90;;;;;;5072268;27;20401;-88
2023/01/15 14:31:57;;;;;;;6.80;1.20;;;4.80;99.90;;;;;;5080602;28;20052;-89
2023/01/15 14:34:34;;;;;;;5.78;1.40;;;4.70;99.90;;;;;;5092160;28;20499;-85
2023/01/15 14:37:37;;;;;;;11.38;1.83;;;4.80;99.90;;;;;;5068321;28;20428;-84
2023/01/15 14:41:04;;;;;;;9.98;2.58;;;4.80;99.90;;;;;;5068459;28;20351;-89
2023/01/15 14:43:36;;;;;;;10.98;1.45;;;4.90;99.90;;;;;;5074078;28;20051;-86
2023/01/15 14:46:32;;;;;;;;;;;;;;;;;;;;;
2023/01/15 14:49:01;;;;;;;8.27;1.90;;;5.00;99.90;;;;;;5082001;28;20059;-85
2023/01/15 14:51:48;;;;;;;11.05;2.38;;;5.10;99.90;;;;;;5059148;28;20044;-88
2023/01/15 14:54:35;;;;;;;10.68;2.30;;;5.00;99.90;;;;;;5078472;28;20051;-85
2023/01/15 14:57:15;;;;;;;7.72;2.13;;;5.20;99.90;;;;;;5092680;28;20082;-85
2023/01/15 15:00:04;;;;;;;8.38;2.42;;;5.00;99.90;;;;;;5079234;28;20055;-87
2023/01/15 15:08:50;;;;;;;13.02;1.88;;;5.00;99.90;;;;;;5067219;28;20181;-86
2023/01/15 15:14:43;;;;;;;11.95;1.63;;;5.10;99.90;;;;;;5089902;28;20048;-87
2023/01/15 15:17:50;;;;;;;9.85;1.35;;;5.00;99.90;;;;;;5058437;28;20082;-86
2023/01/15 15:20:51;;;;;;;;;;;;;;;;;;;;;